CJR8 weather

Mccreary Airport
Mccreary, Manitoba, Canada

Public forecast

Using degrees Celsius for public forecast. Weather courtesy of forecast.io.

Closest aviation weather report (METAR) to Mccreary Airport

Closest report is Dauphin Barker Airport, 29.1 nm (54.0 km) NW. Retrieved 2019/10/20 04:00 UTC (2 hours ago):

CYDN 200400Z AUTO 25005KT 9SM CLR 04/01 A2952 RMK SLP010

Closest aviation forecast (TAF) to Mccreary Airport

Closest forecast is Dauphin Barker Airport, 29.1 nm (54.0 km) NW. Retrieved 2019-10-20 00:39 UTC (5 hours ago):

TAF CYDN 192338Z 2000/2012 23006KT P6SM SCT090 BKN120 FM200700 24010KT P6SM SCT050 BKN090 RMK FCST BASED ON AUTO OBS NXT FCST BY 200600Z